sensor_id;sensor_type;location;lat;lon;timestamp;P1;durP1;ratioP1;P2;durP2;ratioP2
31114;SDS011;17764;47.152;9.828;2022-11-20T00:00:25;6.33;;;4.17;;
31114;SDS011;17764;47.152;9.828;2022-11-20T00:02:51;4.87;;;3.37;;
31114;SDS011;17764;47.152;9.828;2022-11-20T00:05:17;4.30;;;2.77;;
31114;SDS011;17764;47.152;9.828;2022-11-20T00:07:46;3.60;;;2.90;;
31114;SDS011;17764;47.152;9.828;2022-11-20T00:10:12;4.20;;;2.60;;
31114;SDS011;17764;47.152;9.828;2022-11-20T00:12:38;3.40;;;2.40;;
31114;SDS011;17764;47.152;9.828;2022-11-20T00:15:04;4.23;;;2.60;;
31114;SDS011;17764;47.152;9.828;2022-11-20T00:17:30;8.27;;;2.60;;
31114;SDS011;17764;47.152;9.828;2022-11-20T00:19:56;3.20;;;2.33;;
31114;SDS011;17764;47.152;9.828;2022-11-20T00:22:22;3.77;;;2.40;;
31114;SDS011;17764;47.152;9.828;2022-11-20T00:24:48;3.50;;;2.33;;
31114;SDS011;17764;47.152;9.828;2022-11-20T00:27:14;3.63;;;2.50;;
31114;SDS011;17764;47.152;9.828;2022-11-20T00:29:40;5.20;;;2.53;;
31114;SDS011;17764;47.152;9.828;2022-11-20T00:32:06;4.70;;;3.23;;
31114;SDS011;17764;47.152;9.828;2022-11-20T00:34:32;4.77;;;3.37;;
31114;SDS011;17764;47.152;9.828;2022-11-20T00:36:58;5.60;;;3.33;;
31114;SDS011;17764;47.152;9.828;2022-11-20T00:39:24;4.07;;;2.70;;
31114;SDS011;17764;47.152;9.828;2022-11-20T00:41:50;3.13;;;2.33;;
31114;SDS011;17764;47.152;9.828;2022-11-20T00:44:16;3.77;;;2.33;;
31114;SDS011;17764;47.152;9.828;2022-11-20T00:46:42;3.67;;;2.43;;
31114;SDS011;17764;47.152;9.828;2022-11-20T00:49:08;3.77;;;2.50;;
31114;SDS011;17764;47.152;9.828;2022-11-20T00:51:34;3.17;;;2.00;;
31114;SDS011;17764;47.152;9.828;2022-11-20T00:54:00;4.80;;;2.50;;
31114;SDS011;17764;47.152;9.828;2022-11-20T00:56:27;3.20;;;2.20;;
31114;SDS011;17764;47.152;9.828;2022-11-20T00:58:53;3.40;;;2.30;;
31114;SDS011;17764;47.152;9.828;2022-11-20T01:01:23;2.73;;;2.23;;
31114;SDS011;17764;47.152;9.828;2022-11-20T01:03:51;3.80;;;2.30;;
31114;SDS011;17764;47.152;9.828;2022-11-20T01:06:18;3.20;;;2.30;;
31114;SDS011;17764;47.152;9.828;2022-11-20T01:08:45;3.43;;;2.43;;
31114;SDS011;17764;47.152;9.828;2022-11-20T01:11:15;3.30;;;2.50;;
31114;SDS011;17764;47.152;9.828;2022-11-20T01:13:42;3.23;;;2.60;;
31114;SDS011;17764;47.152;9.828;2022-11-20T01:18:37;3.20;;;2.17;;
31114;SDS011;17764;47.152;9.828;2022-11-20T01:21:04;3.90;;;2.47;;
31114;SDS011;17764;47.152;9.828;2022-11-20T01:23:35;4.30;;;2.60;;
31114;SDS011;17764;47.152;9.828;2022-11-20T01:26:05;4.00;;;2.67;;
31114;SDS011;17764;47.152;9.828;2022-11-20T01:28:31;3.57;;;2.60;;
31114;SDS011;17764;47.152;9.828;2022-11-20T01:30:57;4.57;;;3.10;;
31114;SDS011;17764;47.152;9.828;2022-11-20T01:33:24;4.13;;;3.00;;
31114;SDS011;17764;47.152;9.828;2022-11-20T01:35:50;3.77;;;2.77;;
31114;SDS011;17764;47.152;9.828;2022-11-20T01:38:17;3.83;;;3.00;;
31114;SDS011;17764;47.152;9.828;2022-11-20T01:40:43;3.87;;;2.90;;
31114;SDS011;17764;47.152;9.828;2022-11-20T01:43:13;3.07;;;2.30;;
31114;SDS011;17764;47.152;9.828;2022-11-20T01:48:12;3.83;;;2.70;;
31114;SDS011;17764;47.152;9.828;2022-11-20T01:50:38;5.17;;;3.00;;
31114;SDS011;17764;47.152;9.828;2022-11-20T01:53:06;3.53;;;2.60;;
31114;SDS011;17764;47.152;9.828;2022-11-20T01:55:37;5.67;;;3.30;;
31114;SDS011;17764;47.152;9.828;2022-11-20T01:58:06;4.37;;;3.17;;
31114;SDS011;17764;47.152;9.828;2022-11-20T02:00:32;3.43;;;2.43;;
31114;SDS011;17764;47.152;9.828;2022-11-20T02:02:59;3.27;;;2.50;;
31114;SDS011;17764;47.152;9.828;2022-11-20T02:05:29;3.47;;;2.23;;
31114;SDS011;17764;47.152;9.828;2022-11-20T02:07:57;3.17;;;2.10;;
31114;SDS011;17764;47.152;9.828;2022-11-20T02:10:23;4.17;;;2.40;;
31114;SDS011;17764;47.152;9.828;2022-11-20T02:12:50;2.70;;;2.10;;
31114;SDS011;17764;47.152;9.828;2022-11-20T02:15:34;2.63;;;1.83;;
31114;SDS011;17764;47.152;9.828;2022-11-20T02:18:00;3.80;;;2.47;;
31114;SDS011;17764;47.152;9.828;2022-11-20T02:20:26;3.50;;;2.50;;
31114;SDS011;17764;47.152;9.828;2022-11-20T02:23:06;5.07;;;3.30;;
31114;SDS011;17764;47.152;9.828;2022-11-20T02:25:32;6.90;;;4.17;;
31114;SDS011;17764;47.152;9.828;2022-11-20T02:28:00;5.07;;;3.47;;
31114;SDS011;17764;47.152;9.828;2022-11-20T02:30:26;3.70;;;2.90;;
31114;SDS011;17764;47.152;9.828;2022-11-20T02:32:52;4.03;;;2.70;;
31114;SDS011;17764;47.152;9.828;2022-11-20T02:37:44;8.47;;;3.63;;
31114;SDS011;17764;47.152;9.828;2022-11-20T02:40:10;4.77;;;2.87;;
31114;SDS011;17764;47.152;9.828;2022-11-20T02:42:37;4.30;;;2.50;;
31114;SDS011;17764;47.152;9.828;2022-11-20T02:45:03;4.13;;;2.50;;
31114;SDS011;17764;47.152;9.828;2022-11-20T02:47:29;7.43;;;2.93;;
31114;SDS011;17764;47.152;9.828;2022-11-20T02:49:55;3.77;;;2.60;;
31114;SDS011;17764;47.152;9.828;2022-11-20T02:52:22;3.00;;;2.33;;
31114;SDS011;17764;47.152;9.828;2022-11-20T02:54:48;3.53;;;2.33;;
31114;SDS011;17764;47.152;9.828;2022-11-20T02:57:14;3.57;;;2.30;;
31114;SDS011;17764;47.152;9.828;2022-11-20T02:59:40;4.00;;;2.70;;
31114;SDS011;17764;47.152;9.828;2022-11-20T03:02:06;2.80;;;1.77;;
31114;SDS011;17764;47.152;9.828;2022-11-20T03:04:32;2.57;;;2.07;;
31114;SDS011;17764;47.152;9.828;2022-11-20T03:06:58;3.03;;;2.10;;
31114;SDS011;17764;47.152;9.828;2022-11-20T03:09:24;2.87;;;2.07;;
31114;SDS011;17764;47.152;9.828;2022-11-20T03:11:50;5.03;;;2.03;;
31114;SDS011;17764;47.152;9.828;2022-11-20T03:14:16;3.33;;;2.30;;
31114;SDS011;17764;47.152;9.828;2022-11-20T03:16:42;2.90;;;2.07;;
31114;SDS011;17764;47.152;9.828;2022-11-20T03:19:08;4.00;;;2.07;;
31114;SDS011;17764;47.152;9.828;2022-11-20T03:21:34;4.30;;;2.13;;
31114;SDS011;17764;47.152;9.828;2022-11-20T03:24:01;3.00;;;1.87;;
31114;SDS011;17764;47.152;9.828;2022-11-20T03:26:27;2.97;;;2.07;;
31114;SDS011;17764;47.152;9.828;2022-11-20T03:28:54;3.33;;;2.27;;
31114;SDS011;17764;47.152;9.828;2022-11-20T03:31:22;2.83;;;2.37;;
31114;SDS011;17764;47.152;9.828;2022-11-20T03:33:51;3.13;;;2.33;;
31114;SDS011;17764;47.152;9.828;2022-11-20T03:36:20;3.77;;;2.47;;
31114;SDS011;17764;47.152;9.828;2022-11-20T03:38:46;2.77;;;2.00;;
31114;SDS011;17764;47.152;9.828;2022-11-20T03:41:14;2.80;;;2.40;;
31114;SDS011;17764;47.152;9.828;2022-11-20T03:43:40;2.37;;;1.97;;
31114;SDS011;17764;47.152;9.828;2022-11-20T03:46:06;2.83;;;2.17;;
31114;SDS011;17764;47.152;9.828;2022-11-20T03:48:33;3.03;;;2.37;;
31114;SDS011;17764;47.152;9.828;2022-11-20T03:53:34;3.30;;;2.47;;
31114;SDS011;17764;47.152;9.828;2022-11-20T03:56:00;4.23;;;3.00;;
31114;SDS011;17764;47.152;9.828;2022-11-20T03:58:26;3.80;;;2.80;;
31114;SDS011;17764;47.152;9.828;2022-11-20T04:00:52;3.73;;;2.50;;
31114;SDS011;17764;47.152;9.828;2022-11-20T04:03:18;4.00;;;2.80;;
31114;SDS011;17764;47.152;9.828;2022-11-20T04:05:45;4.47;;;2.80;;
31114;SDS011;17764;47.152;9.828;2022-11-20T04:08:11;3.73;;;2.50;;
31114;SDS011;17764;47.152;9.828;2022-11-20T04:10:37;4.43;;;2.90;;
31114;SDS011;17764;47.152;9.828;2022-11-20T04:13:03;4.37;;;2.90;;
31114;SDS011;17764;47.152;9.828;2022-11-20T04:15:29;5.20;;;2.80;;
31114;SDS011;17764;47.152;9.828;2022-11-20T04:17:55;4.23;;;2.77;;
31114;SDS011;17764;47.152;9.828;2022-11-20T04:20:21;3.50;;;2.47;;
31114;SDS011;17764;47.152;9.828;2022-11-20T04:22:47;4.47;;;2.43;;
31114;SDS011;17764;47.152;9.828;2022-11-20T04:25:13;3.33;;;2.43;;
31114;SDS011;17764;47.152;9.828;2022-11-20T04:27:39;4.10;;;2.67;;
31114;SDS011;17764;47.152;9.828;2022-11-20T04:30:05;3.87;;;2.50;;
31114;SDS011;17764;47.152;9.828;2022-11-20T04:32:31;4.93;;;2.80;;
31114;SDS011;17764;47.152;9.828;2022-11-20T04:34:57;5.23;;;3.60;;
31114;SDS011;17764;47.152;9.828;2022-11-20T04:37:23;5.57;;;3.60;;
31114;SDS011;17764;47.152;9.828;2022-11-20T04:39:49;9.90;;;4.60;;
31114;SDS011;17764;47.152;9.828;2022-11-20T04:42:15;5.73;;;4.00;;
31114;SDS011;17764;47.152;9.828;2022-11-20T04:44:54;4.67;;;3.60;;
31114;SDS011;17764;47.152;9.828;2022-11-20T04:47:20;5.07;;;3.50;;
31114;SDS011;17764;47.152;9.828;2022-11-20T04:49:46;4.13;;;3.10;;
31114;SDS011;17764;47.152;9.828;2022-11-20T04:52:12;4.37;;;3.40;;
31114;SDS011;17764;47.152;9.828;2022-11-20T04:54:38;4.60;;;2.93;;
31114;SDS011;17764;47.152;9.828;2022-11-20T04:57:04;4.73;;;3.10;;
31114;SDS011;17764;47.152;9.828;2022-11-20T04:59:30;3.40;;;3.10;;
31114;SDS011;17764;47.152;9.828;2022-11-20T05:01:56;4.50;;;3.37;;
31114;SDS011;17764;47.152;9.828;2022-11-20T05:04:22;5.80;;;3.50;;
31114;SDS011;17764;47.152;9.828;2022-11-20T05:06:49;4.20;;;2.67;;
31114;SDS011;17764;47.152;9.828;2022-11-20T05:09:15;4.63;;;2.80;;
31114;SDS011;17764;47.152;9.828;2022-11-20T05:11:41;4.60;;;3.00;;
31114;SDS011;17764;47.152;9.828;2022-11-20T05:14:07;4.30;;;2.90;;
31114;SDS011;17764;47.152;9.828;2022-11-20T05:16:33;3.67;;;2.83;;
31114;SDS011;17764;47.152;9.828;2022-11-20T05:19:01;4.50;;;3.23;;
31114;SDS011;17764;47.152;9.828;2022-11-20T05:21:27;5.07;;;3.20;;
31114;SDS011;17764;47.152;9.828;2022-11-20T05:23:53;2.63;;;2.30;;
31114;SDS011;17764;47.152;9.828;2022-11-20T05:26:20;4.77;;;2.93;;
31114;SDS011;17764;47.152;9.828;2022-11-20T05:28:49;5.00;;;2.83;;
31114;SDS011;17764;47.152;9.828;2022-11-20T05:31:19;3.17;;;2.80;;
31114;SDS011;17764;47.152;9.828;2022-11-20T05:33:46;4.23;;;3.13;;
31114;SDS011;17764;47.152;9.828;2022-11-20T05:36:12;4.40;;;2.87;;
31114;SDS011;17764;47.152;9.828;2022-11-20T05:38:39;4.33;;;2.87;;
31114;SDS011;17764;47.152;9.828;2022-11-20T05:43:34;3.77;;;3.10;;
31114;SDS011;17764;47.152;9.828;2022-11-20T05:46:01;3.73;;;3.20;;
31114;SDS011;17764;47.152;9.828;2022-11-20T05:48:27;4.90;;;4.00;;
31114;SDS011;17764;47.152;9.828;2022-11-20T05:50:53;5.50;;;3.90;;
31114;SDS011;17764;47.152;9.828;2022-11-20T05:53:19;4.73;;;3.23;;
31114;SDS011;17764;47.152;9.828;2022-11-20T05:55:45;5.53;;;3.80;;
31114;SDS011;17764;47.152;9.828;2022-11-20T05:58:11;5.00;;;3.60;;
31114;SDS011;17764;47.152;9.828;2022-11-20T06:00:37;4.17;;;3.10;;
31114;SDS011;17764;47.152;9.828;2022-11-20T06:03:03;4.40;;;3.20;;
31114;SDS011;17764;47.152;9.828;2022-11-20T06:05:29;4.33;;;2.80;;
31114;SDS011;17764;47.152;9.828;2022-11-20T06:07:55;3.80;;;2.70;;
31114;SDS011;17764;47.152;9.828;2022-11-20T06:10:21;3.40;;;2.50;;
31114;SDS011;17764;47.152;9.828;2022-11-20T06:12:47;3.83;;;2.50;;
31114;SDS011;17764;47.152;9.828;2022-11-20T06:15:13;2.53;;;1.80;;
31114;SDS011;17764;47.152;9.828;2022-11-20T06:17:39;2.33;;;1.90;;
31114;SDS011;17764;47.152;9.828;2022-11-20T06:20:05;2.83;;;1.97;;
31114;SDS011;17764;47.152;9.828;2022-11-20T06:22:31;2.13;;;1.80;;
31114;SDS011;17764;47.152;9.828;2022-11-20T06:24:58;3.30;;;2.00;;
31114;SDS011;17764;47.152;9.828;2022-11-20T06:27:24;2.23;;;1.63;;
31114;SDS011;17764;47.152;9.828;2022-11-20T06:29:50;2.37;;;1.57;;
31114;SDS011;17764;47.152;9.828;2022-11-20T06:32:16;3.83;;;2.20;;
31114;SDS011;17764;47.152;9.828;2022-11-20T06:34:42;8.53;;;4.60;;
31114;SDS011;17764;47.152;9.828;2022-11-20T06:37:08;14.87;;;7.53;;
31114;SDS011;17764;47.152;9.828;2022-11-20T06:39:34;14.57;;;7.97;;
31114;SDS011;17764;47.152;9.828;2022-11-20T06:42:00;18.83;;;8.83;;
31114;SDS011;17764;47.152;9.828;2022-11-20T06:44:26;15.80;;;8.40;;
31114;SDS011;17764;47.152;9.828;2022-11-20T06:46:52;13.37;;;6.90;;
31114;SDS011;17764;47.152;9.828;2022-11-20T06:49:18;11.10;;;6.57;;
31114;SDS011;17764;47.152;9.828;2022-11-20T06:51:44;9.50;;;5.20;;
31114;SDS011;17764;47.152;9.828;2022-11-20T06:54:10;7.57;;;4.83;;
31114;SDS011;17764;47.152;9.828;2022-11-20T06:56:36;5.33;;;4.13;;
31114;SDS011;17764;47.152;9.828;2022-11-20T06:59:06;5.27;;;3.30;;
31114;SDS011;17764;47.152;9.828;2022-11-20T07:01:32;5.13;;;3.80;;
31114;SDS011;17764;47.152;9.828;2022-11-20T07:03:58;4.80;;;3.53;;
31114;SDS011;17764;47.152;9.828;2022-11-20T07:06:24;4.60;;;3.17;;
31114;SDS011;17764;47.152;9.828;2022-11-20T07:08:50;4.47;;;3.13;;
31114;SDS011;17764;47.152;9.828;2022-11-20T07:11:17;3.97;;;3.23;;
31114;SDS011;17764;47.152;9.828;2022-11-20T07:13:43;4.50;;;3.70;;
31114;SDS011;17764;47.152;9.828;2022-11-20T07:16:09;5.37;;;3.57;;
31114;SDS011;17764;47.152;9.828;2022-11-20T07:18:35;4.30;;;3.50;;
31114;SDS011;17764;47.152;9.828;2022-11-20T07:21:02;5.63;;;3.27;;
31114;SDS011;17764;47.152;9.828;2022-11-20T07:23:28;6.67;;;3.70;;
31114;SDS011;17764;47.152;9.828;2022-11-20T07:25:54;4.77;;;3.53;;
31114;SDS011;17764;47.152;9.828;2022-11-20T07:28:20;4.43;;;3.00;;
31114;SDS011;17764;47.152;9.828;2022-11-20T07:30:50;4.30;;;3.67;;
31114;SDS011;17764;47.152;9.828;2022-11-20T07:33:16;4.03;;;3.20;;
31114;SDS011;17764;47.152;9.828;2022-11-20T07:35:42;5.07;;;3.17;;
31114;SDS011;17764;47.152;9.828;2022-11-20T07:38:08;4.20;;;2.50;;
31114;SDS011;17764;47.152;9.828;2022-11-20T07:40:34;2.50;;;2.30;;
31114;SDS011;17764;47.152;9.828;2022-11-20T07:43:01;3.33;;;2.70;;
31114;SDS011;17764;47.152;9.828;2022-11-20T07:45:27;3.90;;;2.93;;
31114;SDS011;17764;47.152;9.828;2022-11-20T07:47:53;4.93;;;3.83;;
31114;SDS011;17764;47.152;9.828;2022-11-20T07:50:19;5.60;;;3.83;;
31114;SDS011;17764;47.152;9.828;2022-11-20T07:52:45;6.17;;;3.53;;
31114;SDS011;17764;47.152;9.828;2022-11-20T07:55:11;6.17;;;4.33;;
31114;SDS011;17764;47.152;9.828;2022-11-20T07:57:37;4.43;;;3.70;;
31114;SDS011;17764;47.152;9.828;2022-11-20T08:00:04;5.03;;;3.47;;
31114;SDS011;17764;47.152;9.828;2022-11-20T08:02:30;4.67;;;3.53;;
31114;SDS011;17764;47.152;9.828;2022-11-20T08:04:56;5.57;;;2.97;;
31114;SDS011;17764;47.152;9.828;2022-11-20T08:07:22;3.47;;;2.60;;
31114;SDS011;17764;47.152;9.828;2022-11-20T08:09:48;3.87;;;2.80;;
31114;SDS011;17764;47.152;9.828;2022-11-20T08:12:18;3.87;;;2.77;;
31114;SDS011;17764;47.152;9.828;2022-11-20T08:15:04;4.00;;;2.50;;
31114;SDS011;17764;47.152;9.828;2022-11-20T08:17:30;3.70;;;2.73;;
31114;SDS011;17764;47.152;9.828;2022-11-20T08:19:56;3.33;;;2.60;;
31114;SDS011;17764;47.152;9.828;2022-11-20T08:22:22;4.43;;;2.87;;
31114;SDS011;17764;47.152;9.828;2022-11-20T08:24:49;3.40;;;2.93;;
31114;SDS011;17764;47.152;9.828;2022-11-20T08:27:15;4.43;;;2.80;;
31114;SDS011;17764;47.152;9.828;2022-11-20T08:29:41;5.17;;;3.10;;
31114;SDS011;17764;47.152;9.828;2022-11-20T08:32:07;5.40;;;3.27;;
31114;SDS011;17764;47.152;9.828;2022-11-20T08:34:33;4.53;;;3.27;;
31114;SDS011;17764;47.152;9.828;2022-11-20T08:37:01;5.70;;;3.63;;
31114;SDS011;17764;47.152;9.828;2022-11-20T08:39:27;4.40;;;2.93;;
31114;SDS011;17764;47.152;9.828;2022-11-20T08:41:55;3.23;;;2.60;;
31114;SDS011;17764;47.152;9.828;2022-11-20T08:44:21;4.03;;;2.63;;
31114;SDS011;17764;47.152;9.828;2022-11-20T08:46:47;3.00;;;2.37;;
31114;SDS011;17764;47.152;9.828;2022-11-20T08:49:13;2.70;;;2.30;;
31114;SDS011;17764;47.152;9.828;2022-11-20T08:51:40;2.90;;;2.10;;
31114;SDS011;17764;47.152;9.828;2022-11-20T08:54:06;3.83;;;2.50;;
31114;SDS011;17764;47.152;9.828;2022-11-20T08:56:32;3.17;;;2.30;;
31114;SDS011;17764;47.152;9.828;2022-11-20T08:58:58;3.60;;;2.17;;
31114;SDS011;17764;47.152;9.828;2022-11-20T09:01:25;2.60;;;2.20;;
31114;SDS011;17764;47.152;9.828;2022-11-20T09:03:51;2.77;;;2.07;;
31114;SDS011;17764;47.152;9.828;2022-11-20T09:06:17;2.83;;;2.00;;
31114;SDS011;17764;47.152;9.828;2022-11-20T09:08:44;2.70;;;1.90;;
31114;SDS011;17764;47.152;9.828;2022-11-20T09:11:10;2.53;;;1.97;;
31114;SDS011;17764;47.152;9.828;2022-11-20T09:13:36;2.87;;;2.10;;
31114;SDS011;17764;47.152;9.828;2022-11-20T09:16:03;4.57;;;2.47;;
31114;SDS011;17764;47.152;9.828;2022-11-20T09:18:30;2.67;;;2.07;;
31114;SDS011;17764;47.152;9.828;2022-11-20T09:21:00;2.73;;;2.00;;
31114;SDS011;17764;47.152;9.828;2022-11-20T09:23:27;2.43;;;1.93;;
31114;SDS011;17764;47.152;9.828;2022-11-20T09:25:53;3.30;;;2.40;;
31114;SDS011;17764;47.152;9.828;2022-11-20T09:28:21;3.77;;;2.27;;
31114;SDS011;17764;47.152;9.828;2022-11-20T09:30:47;3.03;;;2.20;;
31114;SDS011;17764;47.152;9.828;2022-11-20T09:33:13;3.77;;;2.43;;
31114;SDS011;17764;47.152;9.828;2022-11-20T09:35:39;4.73;;;2.10;;
31114;SDS011;17764;47.152;9.828;2022-11-20T09:38:06;2.60;;;1.93;;
31114;SDS011;17764;47.152;9.828;2022-11-20T09:40:32;3.10;;;2.17;;
31114;SDS011;17764;47.152;9.828;2022-11-20T09:43:19;2.33;;;1.77;;
31114;SDS011;17764;47.152;9.828;2022-11-20T09:46:02;3.17;;;2.23;;
31114;SDS011;17764;47.152;9.828;2022-11-20T09:56:09;3.33;;;2.40;;
31114;SDS011;17764;47.152;9.828;2022-11-20T09:58:44;2.50;;;1.70;;
31114;SDS011;17764;47.152;9.828;2022-11-20T10:01:17;2.07;;;1.60;;
31114;SDS011;17764;47.152;9.828;2022-11-20T10:06:24;3.23;;;2.00;;
31114;SDS011;17764;47.152;9.828;2022-11-20T10:08:56;2.63;;;1.60;;
31114;SDS011;17764;47.152;9.828;2022-11-20T10:16:39;2.20;;;1.23;;
31114;SDS011;17764;47.152;9.828;2022-11-20T10:22:06;1.53;;;1.40;;
31114;SDS011;17764;47.152;9.828;2022-11-20T10:29:54;1.60;;;1.33;;
31114;SDS011;17764;47.152;9.828;2022-11-20T10:32:27;1.70;;;1.27;;
31114;SDS011;17764;47.152;9.828;2022-11-20T10:37:22;2.40;;;1.50;;
31114;SDS011;17764;47.152;9.828;2022-11-20T10:39:55;2.17;;;1.53;;
31114;SDS011;17764;47.152;9.828;2022-11-20T10:42:31;2.47;;;1.60;;
31114;SDS011;17764;47.152;9.828;2022-11-20T10:45:09;2.07;;;1.67;;
31114;SDS011;17764;47.152;9.828;2022-11-20T10:47:39;2.67;;;1.70;;
31114;SDS011;17764;47.152;9.828;2022-11-20T10:50:05;1.90;;;1.50;;
31114;SDS011;17764;47.152;9.828;2022-11-20T10:52:48;2.13;;;1.83;;
31114;SDS011;17764;47.152;9.828;2022-11-20T11:00:17;3.67;;;2.00;;
31114;SDS011;17764;47.152;9.828;2022-11-20T11:02:50;4.10;;;3.33;;
31114;SDS011;17764;47.152;9.828;2022-11-20T11:05:25;4.33;;;3.10;;
31114;SDS011;17764;47.152;9.828;2022-11-20T11:07:54;3.10;;;2.47;;
31114;SDS011;17764;47.152;9.828;2022-11-20T11:12:49;2.03;;;1.40;;
31114;SDS011;17764;47.152;9.828;2022-11-20T11:15:28;1.57;;;1.47;;
31114;SDS011;17764;47.152;9.828;2022-11-20T11:17:54;2.07;;;1.50;;
31114;SDS011;17764;47.152;9.828;2022-11-20T11:20:24;1.80;;;1.27;;
31114;SDS011;17764;47.152;9.828;2022-11-20T11:22:55;1.53;;;1.10;;
31114;SDS011;17764;47.152;9.828;2022-11-20T11:25:31;1.47;;;1.20;;
31114;SDS011;17764;47.152;9.828;2022-11-20T11:28:04;2.03;;;1.33;;
31114;SDS011;17764;47.152;9.828;2022-11-20T11:30:40;1.97;;;1.23;;
31114;SDS011;17764;47.152;9.828;2022-11-20T11:33:09;1.70;;;1.20;;
31114;SDS011;17764;47.152;9.828;2022-11-20T11:35:39;2.87;;;1.50;;
31114;SDS011;17764;47.152;9.828;2022-11-20T11:38:42;2.53;;;1.30;;
31114;SDS011;17764;47.152;9.828;2022-11-20T11:41:01;1.97;;;1.30;;
31114;SDS011;17764;47.152;9.828;2022-11-20T11:43:34;1.37;;;1.07;;
31114;SDS011;17764;47.152;9.828;2022-11-20T11:48:55;2.40;;;1.30;;
31114;SDS011;17764;47.152;9.828;2022-11-20T11:51:22;2.33;;;1.30;;
31114;SDS011;17764;47.152;9.828;2022-11-20T11:53:51;2.37;;;1.40;;
31114;SDS011;17764;47.152;9.828;2022-11-20T11:56:17;1.50;;;1.30;;
31114;SDS011;17764;47.152;9.828;2022-11-20T11:58:47;2.03;;;1.33;;
31114;SDS011;17764;47.152;9.828;2022-11-20T12:01:20;1.80;;;1.40;;
31114;SDS011;17764;47.152;9.828;2022-11-20T12:06:38;2.33;;;1.23;;
31114;SDS011;17764;47.152;9.828;2022-11-20T12:09:08;1.73;;;1.13;;
31114;SDS011;17764;47.152;9.828;2022-11-20T12:16:41;1.67;;;1.10;;
31114;SDS011;17764;47.152;9.828;2022-11-20T12:19:11;2.10;;;1.13;;
31114;SDS011;17764;47.152;9.828;2022-11-20T12:24:29;1.50;;;1.07;;
31114;SDS011;17764;47.152;9.828;2022-11-20T12:29:30;1.57;;;1.20;;
31114;SDS011;17764;47.152;9.828;2022-11-20T12:38:14;1.73;;;1.13;;
31114;SDS011;17764;47.152;9.828;2022-11-20T12:54:17;7.90;;;3.73;;
31114;SDS011;17764;47.152;9.828;2022-11-20T12:56:50;6.47;;;3.07;;
31114;SDS011;17764;47.152;9.828;2022-11-20T13:07:14;3.90;;;2.13;;
31114;SDS011;17764;47.152;9.828;2022-11-20T13:09:45;3.23;;;2.00;;
31114;SDS011;17764;47.152;9.828;2022-11-20T13:15:05;3.33;;;1.87;;
31114;SDS011;17764;47.152;9.828;2022-11-20T13:17:59;2.53;;;1.80;;
31114;SDS011;17764;47.152;9.828;2022-11-20T13:20:23;2.43;;;1.50;;
31114;SDS011;17764;47.152;9.828;2022-11-20T13:22:50;2.87;;;1.30;;
31114;SDS011;17764;47.152;9.828;2022-11-20T13:25:23;1.97;;;1.50;;
31114;SDS011;17764;47.152;9.828;2022-11-20T13:27:50;1.70;;;1.30;;
31114;SDS011;17764;47.152;9.828;2022-11-20T13:30:17;1.77;;;1.33;;
31114;SDS011;17764;47.152;9.828;2022-11-20T13:32:49;2.03;;;1.33;;
31114;SDS011;17764;47.152;9.828;2022-11-20T13:35:24;2.47;;;1.77;;
31114;SDS011;17764;47.152;9.828;2022-11-20T13:37:58;2.20;;;1.33;;
31114;SDS011;17764;47.152;9.828;2022-11-20T13:40:25;2.03;;;1.43;;
31114;SDS011;17764;47.152;9.828;2022-11-20T13:42:55;1.97;;;1.20;;
31114;SDS011;17764;47.152;9.828;2022-11-20T13:45:27;1.80;;;1.20;;
31114;SDS011;17764;47.152;9.828;2022-11-20T13:47:54;1.83;;;1.23;;
31114;SDS011;17764;47.152;9.828;2022-11-20T13:50:21;1.60;;;1.40;;
31114;SDS011;17764;47.152;9.828;2022-11-20T13:53:09;1.80;;;1.47;;
31114;SDS011;17764;47.152;9.828;2022-11-20T13:58:59;1.63;;;1.20;;
31114;SDS011;17764;47.152;9.828;2022-11-20T14:01:25;1.57;;;1.10;;
31114;SDS011;17764;47.152;9.828;2022-11-20T14:03:52;1.73;;;1.10;;
31114;SDS011;17764;47.152;9.828;2022-11-20T14:06:26;2.33;;;1.10;;
31114;SDS011;17764;47.152;9.828;2022-11-20T14:08:52;1.30;;;0.90;;
31114;SDS011;17764;47.152;9.828;2022-11-20T14:11:23;1.53;;;1.10;;
31114;SDS011;17764;47.152;9.828;2022-11-20T14:14:10;1.40;;;1.00;;
31114;SDS011;17764;47.152;9.828;2022-11-20T14:16:39;1.80;;;1.10;;
31114;SDS011;17764;47.152;9.828;2022-11-20T14:21:46;1.60;;;1.07;;
31114;SDS011;17764;47.152;9.828;2022-11-20T14:24:13;1.67;;;1.07;;
31114;SDS011;17764;47.152;9.828;2022-11-20T14:26:43;2.07;;;0.90;;
31114;SDS011;17764;47.152;9.828;2022-11-20T14:29:13;1.47;;;1.00;;
31114;SDS011;17764;47.152;9.828;2022-11-20T14:31:39;1.00;;;0.90;;
31114;SDS011;17764;47.152;9.828;2022-11-20T14:34:10;1.43;;;1.00;;
31114;SDS011;17764;47.152;9.828;2022-11-20T14:36:37;1.33;;;1.00;;
31114;SDS011;17764;47.152;9.828;2022-11-20T14:39:03;1.40;;;0.97;;
31114;SDS011;17764;47.152;9.828;2022-11-20T14:41:29;1.40;;;1.07;;
31114;SDS011;17764;47.152;9.828;2022-11-20T14:43:57;3.03;;;1.27;;
31114;SDS011;17764;47.152;9.828;2022-11-20T14:46:24;1.40;;;1.00;;
31114;SDS011;17764;47.152;9.828;2022-11-20T14:48:51;2.13;;;1.20;;
31114;SDS011;17764;47.152;9.828;2022-11-20T14:51:28;1.50;;;1.30;;
31114;SDS011;17764;47.152;9.828;2022-11-20T14:53:55;2.00;;;1.10;;
31114;SDS011;17764;47.152;9.828;2022-11-20T14:56:22;1.93;;;1.43;;
31114;SDS011;17764;47.152;9.828;2022-11-20T14:58:55;2.17;;;1.57;;
31114;SDS011;17764;47.152;9.828;2022-11-20T15:01:25;2.83;;;1.73;;
31114;SDS011;17764;47.152;9.828;2022-11-20T15:03:58;3.50;;;2.30;;
31114;SDS011;17764;47.152;9.828;2022-11-20T15:06:25;6.13;;;3.00;;
31114;SDS011;17764;47.152;9.828;2022-11-20T15:08:52;6.73;;;3.70;;
31114;SDS011;17764;47.152;9.828;2022-11-20T15:11:19;5.40;;;3.20;;
31114;SDS011;17764;47.152;9.828;2022-11-20T15:13:47;7.00;;;3.53;;
31114;SDS011;17764;47.152;9.828;2022-11-20T15:16:15;5.67;;;3.23;;
31114;SDS011;17764;47.152;9.828;2022-11-20T15:18:43;5.30;;;2.60;;
31114;SDS011;17764;47.152;9.828;2022-11-20T15:21:16;3.50;;;2.07;;
31114;SDS011;17764;47.152;9.828;2022-11-20T15:23:43;4.00;;;2.30;;
31114;SDS011;17764;47.152;9.828;2022-11-20T15:26:09;3.60;;;2.07;;
31114;SDS011;17764;47.152;9.828;2022-11-20T15:28:46;3.27;;;1.60;;
31114;SDS011;17764;47.152;9.828;2022-11-20T15:31:16;2.67;;;1.83;;
31114;SDS011;17764;47.152;9.828;2022-11-20T15:33:42;6.53;;;2.00;;
31114;SDS011;17764;47.152;9.828;2022-11-20T15:36:09;5.30;;;3.17;;
31114;SDS011;17764;47.152;9.828;2022-11-20T15:38:36;6.73;;;3.80;;
31114;SDS011;17764;47.152;9.828;2022-11-20T15:41:02;5.60;;;3.40;;
31114;SDS011;17764;47.152;9.828;2022-11-20T15:43:28;5.80;;;3.50;;
31114;SDS011;17764;47.152;9.828;2022-11-20T15:46:02;5.80;;;3.07;;
31114;SDS011;17764;47.152;9.828;2022-11-20T15:48:29;5.37;;;2.80;;
31114;SDS011;17764;47.152;9.828;2022-11-20T15:51:19;4.23;;;2.80;;
31114;SDS011;17764;47.152;9.828;2022-11-20T15:53:45;9.00;;;3.77;;
31114;SDS011;17764;47.152;9.828;2022-11-20T15:56:12;5.77;;;3.30;;
31114;SDS011;17764;47.152;9.828;2022-11-20T15:58:38;4.70;;;3.10;;
31114;SDS011;17764;47.152;9.828;2022-11-20T16:01:04;5.23;;;3.13;;
31114;SDS011;17764;47.152;9.828;2022-11-20T16:03:30;3.67;;;2.63;;
31114;SDS011;17764;47.152;9.828;2022-11-20T16:05:56;4.03;;;2.97;;
31114;SDS011;17764;47.152;9.828;2022-11-20T16:08:22;5.17;;;3.40;;
31114;SDS011;17764;47.152;9.828;2022-11-20T16:10:48;5.70;;;3.77;;
31114;SDS011;17764;47.152;9.828;2022-11-20T16:13:17;5.87;;;3.37;;
31114;SDS011;17764;47.152;9.828;2022-11-20T16:16:03;5.20;;;3.20;;
31114;SDS011;17764;47.152;9.828;2022-11-20T16:18:30;4.77;;;3.03;;
31114;SDS011;17764;47.152;9.828;2022-11-20T16:20:56;4.47;;;3.27;;
31114;SDS011;17764;47.152;9.828;2022-11-20T16:23:22;5.57;;;3.30;;
31114;SDS011;17764;47.152;9.828;2022-11-20T16:25:49;4.57;;;3.20;;
31114;SDS011;17764;47.152;9.828;2022-11-20T16:28:15;5.83;;;3.30;;
31114;SDS011;17764;47.152;9.828;2022-11-20T16:30:42;4.10;;;3.03;;